CPM5 weather

Volk Airport
Tottenham, Ontario, Canada

Public forecast

Using degrees Celsius for public forecast. Weather courtesy of forecast.io.

Closest aviation weather report (METAR) to Volk Airport

Closest report is CFB Borden, 17.7 nm (32.7 km) NNW. Retrieved 2019/11/20 18:33 UTC (15 minutes ago):

CYBN 201833Z AUTO 31006KT 280V090 9SM FEW025 06/01 A3009

Closest aviation forecast (TAF) to Volk Airport

Closest forecast is CFB Borden, 17.7 nm (32.7 km) NNW. Retrieved 2019/11/20 18:33 UTC (15 minutes ago):

TAF TAF CYBN 201730Z 2018/2106 34008KT P6SM BKN020 OVC050 TEMPO 2018/2102 BKN025 OVC050 BECMG 2022/2024 VRB03KT FM210200 VRB03KT 4SM BR SCT012 TEMPO 2102/2104 2SM BR BKN010 FM210400 VRB03KT 1SM BR BKN005 PROB40 2104/2106 1/2SM FZFG RMK FCST BASED ON AUTO OBS NXT FCST BY 210000Z